Time;durP1;ratioP1;P1;durP2;ratioP2;P2;SDS_P1;SDS_P2;PMS_P1;PMS_P2;Temp;Humidity;BMP_temperature;BMP_pressure;BME280_temperature;BME280_humidity;BME280_pressure;Samples;Min_cycle;Max_cycle;Signal;HPM_P1;HPM_P2
2022/07/02 00:00:05;;;;;;;4.60;2.60;;;;;;;19.33;60.01;99147.33;105100;1271;61186;-24
2022/07/02 00:02:40;;;;;;;2.90;2.40;;;;;;;19.31;60.06;99148.98;104896;1274;75356;-25
2022/07/02 00:05:08;;;;;;;3.70;2.40;;;;;;;19.28;60.18;99152.54;104766;1271;75155;-24
2022/07/02 00:07:36;;;;;;;6.00;2.90;;;;;;;19.23;60.28;99155.55;105074;1271;74425;-24
2022/07/02 00:10:06;;;;;;;4.50;2.20;;;;;;;19.18;60.63;99150.00;105133;1271;61039;-24
2022/07/02 00:12:33;;;;;;;4.80;2.10;;;;;;;19.13;60.84;99148.91;105119;1271;61031;-24
2022/07/02 00:15:01;;;;;;;3.60;2.20;;;;;;;19.11;60.83;99149.93;105132;1271;77372;-24
2022/07/02 00:17:29;;;;;;;6.70;2.30;;;;;;;19.08;61.07;99149.59;104978;1271;76121;-24
2022/07/02 00:19:59;;;;;;;2.80;2.50;;;;;;;19.05;61.20;99146.17;105002;1271;73642;-24
2022/07/02 00:22:28;;;;;;;3.20;2.40;;;;;;;19.01;61.23;99145.94;104594;1272;61175;-24
2022/07/02 00:24:56;;;;;;;4.40;2.40;;;;;;;18.94;61.52;99142.16;104888;1271;61121;-24
2022/07/02 00:27:27;;;;;;;2.50;1.90;;;;;;;18.87;61.77;99139.37;105045;1274;74457;-24
2022/07/02 00:30:01;;;;;;;3.00;2.00;;;;;;;18.82;61.94;99135.23;104708;1271;74977;-24
2022/07/02 00:32:30;;;;;;;5.70;2.10;;;;;;;19.37;61.74;99140.38;105009;1271;74690;-24
2022/07/02 00:34:58;;;;;;;2.90;2.40;;;;;;;19.95;60.18;99144.69;104673;1272;62538;-24
2022/07/02 00:37:29;;;;;;;6.10;1.90;;;;;;;20.05;59.72;99145.07;104769;1271;61885;-24
2022/07/02 00:39:57;;;;;;;4.70;2.90;;;;;;;19.93;59.65;99144.02;104837;1274;75698;-24
2022/07/02 00:42:25;;;;;;;9.60;4.00;;;;;;;19.73;59.87;99142.67;104824;1271;76441;-24
2022/07/02 00:44:52;;;;;;;4.30;3.00;;;;;;;19.51;60.47;99144.33;104984;1274;74403;-24
2022/07/02 00:47:21;;;;;;;5.80;3.30;;;;;;;19.32;60.81;99151.23;104797;1271;61134;-24
2022/07/02 00:49:49;;;;;;;5.90;3.10;;;;;;;19.13;61.53;99159.50;104846;1274;62143;-24
2022/07/02 00:52:17;;;;;;;6.00;2.90;;;;;;;18.96;61.75;99162.04;104786;1274;75342;-24
2022/07/02 00:54:45;;;;;;;4.00;2.80;;;;;;;18.80;62.65;99163.40;104823;1271;74645;-25
2022/07/02 00:57:12;;;;;;;3.60;2.40;;;;;;;18.67;62.89;99168.66;104782;1274;74557;-24
2022/07/02 00:59:43;;;;;;;3.40;2.70;;;;;;;18.52;63.22;99169.91;104782;1271;61129;-24
2022/07/02 01:02:10;;;;;;;6.30;2.90;;;;;;;18.39;63.53;99168.03;104938;1271;61115;-24
2022/07/02 01:04:39;;;;;;;2.80;2.50;;;;;;;18.27;63.67;99167.27;105092;1274;75551;-24
2022/07/02 01:07:08;;;;;;;3.80;2.20;;;;;;;18.21;64.01;99162.48;104822;1274;75915;-25
2022/07/02 01:12:27;;;;;;;5.10;2.40;;;;;;;19.40;61.97;99163.85;104894;1274;61217;-24
2022/07/02 01:14:55;;;;;;;5.60;2.70;;;;;;;19.45;61.35;99168.20;105072;1274;61628;-24
2022/07/02 01:17:23;;;;;;;4.00;3.10;;;;;;;19.31;61.42;99166.31;104940;1274;75313;-24
2022/07/02 01:19:51;;;;;;;7.00;2.70;;;;;;;19.12;61.76;99163.58;105130;1271;76090;-25
2022/07/02 01:22:23;;;;;;;3.70;2.40;;;;;;;18.93;62.29;99161.82;105132;1271;74248;-24
2022/07/02 01:24:53;;;;;;;5.00;2.90;;;;;;;18.75;62.76;99167.39;105094;1271;62268;-24
2022/07/02 01:27:22;;;;;;;3.70;2.60;;;;;;;18.58;63.50;99169.27;104742;1274;62547;-24
2022/07/02 01:29:50;;;;;;;4.50;2.80;;;;;;;18.41;63.86;99168.74;104792;1274;74521;-24
2022/07/02 01:32:18;;;;;;;3.10;2.50;;;;;;;18.24;64.24;99169.77;105123;1274;74900;-24
2022/07/02 01:34:48;;;;;;;5.10;3.50;;;;;;;18.09;65.05;99176.08;105093;1271;74324;-24
2022/07/02 01:37:17;;;;;;;3.20;2.70;;;;;;;17.97;65.69;99174.42;105078;1271;63732;-24
2022/07/02 01:39:45;;;;;;;9.50;2.60;;;;;;;18.42;65.72;99168.92;105024;1271;61055;-25
2022/07/02 01:42:13;;;;;;;5.80;2.90;;;;;;;18.97;64.16;99160.41;105038;1274;75651;-24
2022/07/02 01:44:43;;;;;;;5.40;2.90;;;;;;;19.07;63.49;99162.48;104822;1274;76660;-25
2022/07/02 01:47:11;;;;;;;3.50;3.00;;;;;;;18.93;63.43;99161.43;105021;1274;74412;-24
2022/07/02 01:49:39;;;;;;;3.10;2.80;;;;;;;18.73;63.84;99160.08;105115;1271;61060;-24
2022/07/02 01:52:07;;;;;;;3.50;2.60;;;;;;;18.48;64.23;99159.09;104955;1271;62287;-24
2022/07/02 01:54:35;;;;;;;3.90;2.80;;;;;;;18.26;64.79;99168.95;104766;1271;75612;-25
2022/07/02 01:57:04;;;;;;;4.80;2.30;;;;;;;18.06;65.37;99176.95;104814;1274;75968;-24
2022/07/02 01:59:32;;;;;;;3.40;2.80;;;;;;;17.85;66.19;99185.17;104889;1274;74450;-24
2022/07/02 02:01:59;;;;;;;2.90;2.20;;;;;;;17.69;67.26;99185.67;104896;1271;61623;-26
2022/07/02 02:04:27;;;;;;;6.40;2.40;;;;;;;18.08;66.82;99186.17;105106;1274;61481;-25
2022/07/02 02:06:54;;;;;;;4.90;2.30;;;;;;;18.61;65.24;99185.45;105147;1274;74648;-25
2022/07/02 02:09:22;;;;;;;4.50;2.50;;;;;;;18.71;64.80;99183.07;105160;1274;75983;-25
2022/07/02 02:11:50;;;;;;;3.30;2.60;;;;;;;18.59;65.03;99184.27;105117;1274;74178;-25
2022/07/02 02:14:20;;;;;;;3.00;2.70;;;;;;;18.38;65.63;99183.81;105013;1271;61814;-25
2022/07/02 02:16:47;;;;;;;3.40;2.80;;;;;;;18.11;66.08;99184.67;105029;1274;61123;-24
2022/07/02 02:19:18;;;;;;;6.00;3.40;;;;;;;17.90;66.62;99186.58;104984;1271;74515;-24
2022/07/02 02:21:45;;;;;;;3.10;2.70;;;;;;;17.74;67.16;99185.14;104960;1272;75739;-24
2022/07/02 02:24:13;;;;;;;5.00;2.80;;;;;;;17.61;67.15;99183.43;104852;1274;74796;-24
2022/07/02 02:26:40;;;;;;;2.40;1.90;;;;;;;17.53;67.45;99180.27;104766;1274;62484;-24
2022/07/02 02:29:08;;;;;;;2.50;2.20;;;;;;;18.12;66.80;99176.44;104766;1274;61150;-24
2022/07/02 02:31:36;;;;;;;3.30;2.50;;;;;;;18.96;64.72;99175.20;104776;1272;75514;-24
2022/07/02 02:34:05;;;;;;;2.90;2.30;;;;;;;19.35;63.09;99170.73;104790;1274;76107;-24
2022/07/02 02:36:32;;;;;;;4.50;2.60;;;;;;;19.49;62.45;99168.45;104684;1274;74458;-24
2022/07/02 02:39:02;;;;;;;3.80;2.70;;;;;;;19.44;62.23;99173.02;105116;1274;62057;-24
2022/07/02 02:41:31;;;;;;;4.30;2.70;;;;;;;19.23;62.93;99177.70;104950;1274;61958;-24
2022/07/02 02:44:01;;;;;;;4.50;3.00;;;;;;;19.18;63.21;99176.20;104812;1274;75451;-24
2022/07/02 02:46:28;;;;;;;5.80;3.00;;;;;;;19.27;62.87;99179.98;104840;1271;76048;-24
2022/07/02 02:48:56;;;;;;;3.90;3.00;;;;;;;19.42;62.77;99182.95;104677;1274;74280;-24
2022/07/02 02:51:24;;;;;;;3.00;2.70;;;;;;;19.58;62.49;99177.62;104811;1274;61537;-24
2022/07/02 02:53:51;;;;;;;3.00;2.40;;;;;;;19.73;62.26;99181.58;104862;1274;62276;-24
2022/07/02 02:56:19;;;;;;;3.20;2.40;;;;;;;20.45;61.48;99182.25;105064;1274;75349;-24
2022/07/02 02:58:46;;;;;;;3.20;2.70;;;;;;;21.28;59.09;99176.39;104800;1273;76053;-24
2022/07/02 03:01:13;;;;;;;3.20;2.50;;;;;;;21.67;57.66;99177.57;105150;1274;74352;-24
2022/07/02 03:03:41;;;;;;;5.30;3.50;;;;;;;21.80;57.12;99181.98;104638;1274;61262;-24
2022/07/02 03:06:10;;;;;;;15.30;8.00;;;;;;;21.80;56.27;99181.48;104689;1274;61265;-24
2022/07/02 03:08:37;;;;;;;22.60;11.30;;;;;;;21.81;56.42;99184.11;104886;1274;270777;-25
2022/07/02 03:11:15;;;;;;;20.30;9.80;;;;;;;21.93;56.41;99182.94;105113;1271;72163;-24
2022/07/02 03:13:42;;;;;;;18.70;9.50;;;;;;;22.07;55.79;99180.20;105037;1274;74312;-24
2022/07/02 03:16:11;;;;;;;24.30;11.90;;;;;;;22.10;55.64;99183.46;105112;1271;62188;-24
2022/07/02 03:18:39;;;;;;;22.90;10.80;;;;;;;22.13;55.48;99181.85;105152;1272;61085;-24
2022/07/02 03:21:07;;;;;;;20.00;10.10;;;;;;;22.27;55.30;99185.09;105114;1272;76425;-24
2022/07/02 03:23:34;;;;;;;15.40;8.10;;;;;;;22.41;55.18;99184.30;105052;1272;75952;-24
2022/07/02 03:26:02;;;;;;;7.10;4.40;;;;;;;22.54;54.79;99184.64;105036;1274;76137;-24
2022/07/02 03:28:29;;;;;;;9.00;4.20;;;;;;;22.61;54.58;99184.36;104814;1274;60982;-24
2022/07/02 03:30:57;;;;;;;7.80;3.30;;;;;;;22.69;54.49;99189.29;104986;1271;61118;-25
2022/07/02 03:33:25;;;;;;;5.70;3.20;;;;;;;22.76;54.36;99192.04;105117;1274;75589;-24
2022/07/02 03:35:54;;;;;;;7.50;4.70;;;;;;;22.92;54.38;99191.00;105168;1274;75986;-24
2022/07/02 03:38:23;;;;;;;8.50;5.70;;;;;;;23.11;54.38;99189.05;104902;1274;73299;-24
2022/07/02 03:40:50;;;;;;;11.60;8.60;;;;;;;23.29;54.06;99187.61;105132;1271;62032;-24
2022/07/02 03:43:18;;;;;;;9.50;6.80;;;;;;;23.42;53.70;99191.77;105147;1274;61124;-24
2022/07/02 03:45:45;;;;;;;6.20;4.00;;;;;;;23.54;53.07;99192.83;105113;1271;77150;-24
2022/07/02 03:48:13;;;;;;;6.30;3.60;;;;;;;23.63;52.69;99195.95;105124;1272;76931;-24
2022/07/02 03:50:42;;;;;;;4.70;2.70;;;;;;;23.74;52.31;99200.93;104868;1272;74395;-24
2022/07/02 03:53:10;;;;;;;4.70;3.20;;;;;;;23.87;52.03;99198.27;104830;1274;61135;-24
2022/07/02 03:55:40;;;;;;;3.80;2.80;;;;;;;24.00;51.87;99199.04;104811;1271;61151;-24
2022/07/02 03:58:08;;;;;;;5.00;3.00;;;;;;;24.21;51.57;99203.77;104836;1271;75360;-24
2022/07/02 04:00:37;;;;;;;3.80;2.90;;;;;;;24.37;51.09;99206.67;105006;1271;76154;-24
2022/07/02 04:03:04;;;;;;;5.30;3.40;;;;;;;24.56;51.19;99209.05;105071;1271;73587;-24
2022/07/02 04:05:33;;;;;;;7.20;3.70;;;;;;;24.76;49.96;99206.56;105128;1271;61125;-24
2022/07/02 04:08:01;;;;;;;7.30;3.30;;;;;;;24.85;49.70;99206.15;105124;1272;61128;-24
2022/07/02 04:10:29;;;;;;;5.70;2.80;;;;;;;24.94;49.62;99210.07;105049;1273;75691;-24
2022/07/02 04:12:57;;;;;;;3.30;2.40;;;;;;;24.96;48.90;99211.20;104859;1274;75973;-24
2022/07/02 04:15:25;;;;;;;3.60;2.70;;;;;;;25.01;49.00;99217.73;104829;1274;74498;-24
2022/07/02 04:17:53;;;;;;;3.90;2.80;;;;;;;25.17;48.84;99217.36;104879;1274;61571;-24
2022/07/02 04:20:22;;;;;;;6.30;3.10;;;;;;;25.28;48.50;99215.42;104863;1274;62023;-24
2022/07/02 04:22:49;;;;;;;5.20;2.80;;;;;;;25.39;48.24;99217.80;104803;1273;75548;-24
2022/07/02 04:25:17;;;;;;;6.40;3.50;;;;;;;25.60;47.92;99223.59;104816;1271;75877;-24
2022/07/02 04:27:44;;;;;;;5.70;3.20;;;;;;;25.70;47.23;99226.80;104787;1271;74482;-24
2022/07/02 04:30:14;;;;;;;5.30;3.10;;;;;;;25.83;47.02;99223.85;104799;1271;61039;-24
2022/07/02 04:32:43;;;;;;;3.50;2.30;;;;;;;25.94;46.77;99222.10;104944;1271;61085;-23
2022/07/02 04:35:10;;;;;;;8.20;2.90;;;;;;;26.03;46.90;99226.31;104788;1271;74508;-23
2022/07/02 04:37:38;;;;;;;6.30;3.00;;;;;;;26.14;46.50;99233.16;105016;1271;76055;-24
2022/07/02 04:40:08;;;;;;;3.50;3.00;;;;;;;26.19;46.18;99236.82;104901;1271;73721;-23
2022/07/02 04:42:35;;;;;;;5.10;2.80;;;;;;;26.28;46.03;99238.03;104915;1271;61529;-23
2022/07/02 04:45:04;;;;;;;5.80;2.80;;;;;;;26.32;45.66;99235.20;104889;1272;61025;-23
2022/07/02 04:47:33;;;;;;;3.40;2.50;;;;;;;26.36;45.73;99235.36;105033;1271;75552;-23
2022/07/02 04:50:00;;;;;;;4.50;2.60;;;;;;;26.42;45.45;99243.70;105128;1271;76067;-23
2022/07/02 04:52:28;;;;;;;4.50;2.40;;;;;;;26.46;45.38;99251.08;105136;1271;73429;-23
2022/07/02 04:54:56;;;;;;;6.70;2.70;;;;;;;26.53;45.54;99254.67;104744;1274;61210;-23
2022/07/02 04:57:24;;;;;;;6.80;3.30;;;;;;;26.68;45.29;99254.05;105077;1271;61125;-23
2022/07/02 04:59:51;;;;;;;6.00;3.00;;;;;;;26.80;44.95;99255.24;105167;1271;75560;-23
2022/07/02 05:02:18;;;;;;;5.50;3.20;;;;;;;26.97;44.72;99256.45;105106;1271;76084;-23
2022/07/02 05:04:46;;;;;;;3.60;2.50;;;;;;;27.08;44.01;99251.79;104986;1274;74742;-23
2022/07/02 05:07:18;;;;;;;4.50;2.80;;;;;;;27.15;43.90;99254.70;104773;1271;62124;-23
2022/07/02 05:09:53;;;;;;;5.80;2.20;;;;;;;27.20;43.65;99256.94;104781;1271;61134;-23
2022/07/02 05:12:21;;;;;;;2.40;1.80;;;;;;;27.25;43.69;99262.95;104813;1271;75567;-23
2022/07/02 05:14:48;;;;;;;3.10;2.10;;;;;;;27.30;42.96;99269.29;104808;1271;76258;-23
2022/07/02 05:17:15;;;;;;;5.40;2.40;;;;;;;27.42;43.41;99267.80;104773;1271;74646;-23
2022/07/02 05:19:43;;;;;;;4.60;1.90;;;;;;;27.57;43.49;99265.30;104795;1273;61881;-23
2022/07/02 05:22:11;;;;;;;2.20;2.00;;;;;;;27.72;43.24;99263.60;104812;1271;61215;-23
2022/07/02 05:24:38;;;;;;;2.30;2.00;;;;;;;27.80;42.93;99272.06;105082;1273;74277;-24
2022/07/02 05:27:06;;;;;;;3.20;2.10;;;;;;;27.89;42.86;99270.98;105077;1274;76004;-24
2022/07/02 05:29:34;;;;;;;8.10;2.40;;;;;;;27.96;42.43;99274.03;104978;1274;74472;-24
2022/07/02 05:32:01;;;;;;;2.90;2.30;;;;;;;27.99;42.29;99270.60;104794;1272;62143;-24
2022/07/02 05:34:31;;;;;;;6.00;2.10;;;;;;;28.05;42.26;99268.48;105085;1274;61075;-24
2022/07/02 05:36:59;;;;;;;8.40;2.50;;;;;;;28.16;42.56;99272.38;105000;1274;75758;-24
2022/07/02 05:39:27;;;;;;;12.30;3.60;;;;;;;28.26;42.06;99267.97;104966;1274;75529;-24
2022/07/02 05:41:55;;;;;;;3.00;2.10;;;;;;;28.34;41.48;99267.88;105107;1273;74247;-24
2022/07/02 05:44:22;;;;;;;3.30;2.00;;;;;;;28.32;41.25;99271.31;104786;1274;61210;-25
2022/07/02 05:46:50;;;;;;;2.10;1.70;;;;;;;28.30;41.03;99269.33;105083;1274;61788;-24
2022/07/02 05:49:18;;;;;;;7.10;2.60;;;;;;;28.31;41.52;99271.20;105170;1274;75578;-24
2022/07/02 05:51:47;;;;;;;4.80;2.80;;;;;;;28.40;41.64;99267.45;105127;1274;75777;-24
2022/07/02 05:54:15;;;;;;;3.40;1.90;;;;;;;28.40;41.44;99270.45;105111;1274;74358;-24
2022/07/02 05:56:42;;;;;;;7.00;2.40;;;;;;;28.54;41.07;99274.63;105114;1274;61031;-24
2022/07/02 05:59:10;;;;;;;2.00;1.80;;;;;;;28.59;41.08;99278.91;105004;1272;60995;-24
2022/07/02 06:01:38;;;;;;;5.50;2.10;;;;;;;28.61;41.52;99284.52;104791;1274;75377;-24
2022/07/02 06:04:05;;;;;;;3.30;2.00;;;;;;;28.68;41.66;99285.45;104792;1274;77807;-24
2022/07/02 06:09:22;;;;;;;3.00;2.10;;;;;;;28.79;41.62;99283.97;104748;1274;61139;-24
2022/07/02 06:11:51;;;;;;;3.70;1.60;;;;;;;28.84;41.02;99279.08;104824;1274;61033;-24
2022/07/02 06:14:18;;;;;;;3.30;1.80;;;;;;;28.79;40.99;99276.09;104788;1274;75524;-24
2022/07/02 06:16:45;;;;;;;2.00;1.80;;;;;;;28.70;41.21;99284.89;104890;1274;75965;-24
2022/07/02 06:19:13;;;;;;;5.00;1.90;;;;;;;28.72;40.89;99285.90;104821;1274;74968;-24
2022/07/02 06:21:40;;;;;;;2.50;1.80;;;;;;;28.79;40.52;99284.29;105101;1273;61087;-24
2022/07/02 06:24:09;;;;;;;2.80;1.80;;;;;;;28.95;41.02;99280.88;105141;1274;61161;-24
2022/07/02 06:26:37;;;;;;;2.50;1.80;;;;;;;29.15;40.75;99286.36;105128;1274;75485;-24
2022/07/02 06:29:05;;;;;;;5.30;1.80;;;;;;;29.34;39.35;99285.81;105096;1274;75991;-24
2022/07/02 06:31:33;;;;;;;2.00;1.60;;;;;;;29.31;38.61;99280.56;104929;1274;74499;-24
2022/07/02 06:34:01;;;;;;;2.00;1.20;;;;;;;29.23;38.70;99279.21;104760;1274;61571;-24
2022/07/02 06:36:28;;;;;;;2.10;1.50;;;;;;;29.27;38.14;99279.38;104884;1273;62611;-24
2022/07/02 06:38:56;;;;;;;1.80;1.50;;;;;;;29.07;38.17;99281.20;104954;1272;75698;-24
2022/07/02 06:44:10;;;;;;;3.70;1.90;;;;;;;28.91;37.99;99285.52;104702;1274;74641;-24
2022/07/02 06:46:39;;;;;;;6.80;1.90;;;;;;;28.90;38.19;99281.48;104951;1274;61944;-24
2022/07/02 06:49:07;;;;;;;5.10;2.00;;;;;;;28.93;38.06;99281.97;105005;1274;61076;-24
2022/07/02 06:51:34;;;;;;;2.80;1.60;;;;;;;28.89;37.79;99281.05;104892;1271;75431;-23
2022/07/02 06:54:02;;;;;;;4.00;1.80;;;;;;;28.84;37.90;99283.09;104943;1271;76023;-23
2022/07/02 06:56:31;;;;;;;6.10;2.20;;;;;;;28.86;38.50;99283.61;105001;1274;74313;-23
2022/07/02 06:59:00;;;;;;;3.70;2.00;;;;;;;28.93;38.31;99284.59;104685;1274;61127;-23
2022/07/02 07:01:36;;;;;;;2.60;1.70;;;;;;;29.01;37.74;99286.23;105110;1274;61462;-23
2022/07/02 07:04:21;;;;;;;1.50;1.40;;;;;;;29.11;37.25;99289.25;104973;1274;75521;-23
2022/07/02 07:06:54;;;;;;;2.30;1.50;;;;;;;29.14;37.65;99291.44;104833;1274;77674;-23
2022/07/02 07:09:23;;;;;;;1.70;1.30;;;;;;;29.22;37.57;99290.01;104826;1272;74432;-23
2022/07/02 07:11:50;;;;;;;3.70;2.20;;;;;;;29.38;37.74;99289.98;105056;1274;61772;-23
2022/07/02 07:14:18;;;;;;;3.60;1.60;;;;;;;29.61;37.39;99289.76;105123;1271;61031;-23
2022/07/02 07:16:45;;;;;;;3.20;1.90;;;;;;;29.75;37.12;99291.84;104922;1274;75519;-23
2022/07/02 07:19:13;;;;;;;3.70;2.00;;;;;;;29.88;36.80;99299.43;104814;1271;75990;-23
2022/07/02 07:21:43;;;;;;;2.30;1.70;;;;;;;29.99;35.65;99298.76;104921;1271;74462;-23
2022/07/02 07:24:10;;;;;;;8.30;2.00;;;;;;;30.00;36.25;99302.36;105020;1271;62689;-23
2022/07/02 07:26:38;;;;;;;3.40;1.80;;;;;;;30.03;36.08;99294.52;104800;1274;61122;-24
2022/07/02 07:29:06;;;;;;;7.50;2.20;;;;;;;30.05;36.78;99296.36;104861;1274;75579;-23
2022/07/02 07:31:36;;;;;;;5.00;2.40;;;;;;;30.16;36.32;99299.08;105059;1272;75987;-24
2022/07/02 07:34:05;;;;;;;4.50;2.30;;;;;;;30.28;36.06;99297.67;104978;1274;73477;-23
2022/07/02 07:36:33;;;;;;;2.60;2.40;;;;;;;30.32;36.63;99297.23;104798;1274;61434;-24
2022/07/02 07:39:02;;;;;;;5.10;1.90;;;;;;;30.40;36.20;99293.80;104955;1271;61989;-23
2022/07/02 07:41:33;;;;;;;;;;;;;;;30.28;36.76;99297.40;104704;1274;74374;-23
2022/07/02 07:44:01;;;;;;;2.40;1.80;;;;;;;30.11;36.41;99298.52;104932;1271;75803;-23
2022/07/02 07:46:29;;;;;;;3.60;1.80;;;;;;;30.08;36.61;99301.13;104955;1272;73476;-23
2022/07/02 07:48:58;;;;;;;3.10;2.10;;;;;;;30.15;37.07;99306.48;104803;1274;61254;-23
2022/07/02 07:51:26;;;;;;;2.10;1.50;;;;;;;30.03;36.92;99308.94;104937;1274;62624;-23
2022/07/02 07:53:54;;;;;;;2.10;1.70;;;;;;;29.80;36.66;99318.90;104811;1272;75532;-23
2022/07/02 07:56:21;;;;;;;5.00;2.70;;;;;;;29.85;37.35;99325.14;104811;1271;74828;-22
2022/07/02 07:58:49;;;;;;;2.90;2.20;;;;;;;30.22;36.47;99334.71;104860;1272;73874;-23
2022/07/02 08:01:16;;;;;;;3.10;2.00;;;;;;;30.55;36.48;99336.80;104959;1272;61183;-23
2022/07/02 08:03:44;;;;;;;3.70;2.00;;;;;;;30.52;36.12;99336.37;104809;1274;61131;-23
2022/07/02 08:06:11;;;;;;;3.30;2.30;;;;;;;30.39;35.81;99338.46;104881;1272;75512;-23
2022/07/02 08:08:41;;;;;;;2.30;2.10;;;;;;;30.43;36.43;99343.48;104832;1271;75966;-23
2022/07/02 08:11:08;;;;;;;2.10;1.90;;;;;;;30.54;36.20;99343.83;104864;1274;74130;-23
2022/07/02 08:13:35;;;;;;;4.40;4.00;;;;;;;30.73;35.67;99339.81;105045;1271;61165;-23
2022/07/02 08:16:04;;;;;;;3.90;1.60;;;;;;;30.89;35.69;99337.35;104950;1273;61206;-23
2022/07/02 08:18:32;;;;;;;2.50;2.10;;;;;;;31.14;35.07;99340.25;104836;1272;75579;-23
2022/07/02 08:21:00;;;;;;;2.60;2.00;;;;;;;31.23;34.42;99348.89;105151;1271;77303;-23
2022/07/02 08:23:28;;;;;;;3.40;2.40;;;;;;;30.84;34.99;99341.38;105082;1271;74866;-23
2022/07/02 08:25:56;;;;;;;2.00;1.70;;;;;;;30.22;35.93;99343.77;105016;1271;61111;-23
2022/07/02 08:28:24;;;;;;;1.60;1.50;;;;;;;30.51;35.70;99339.70;105121;1273;61947;-23
2022/07/02 08:30:52;;;;;;;5.50;2.40;;;;;;;30.80;34.79;99337.69;105128;1272;75378;-23
2022/07/02 08:33:21;;;;;;;5.00;4.50;;;;;;;31.06;34.61;99339.89;105161;1271;76061;-23
2022/07/02 08:35:49;;;;;;;6.90;6.30;;;;;;;31.30;34.68;99339.44;104993;1274;74466;-23
2022/07/02 08:38:18;;;;;;;7.00;4.20;;;;;;;31.57;34.44;99340.52;105172;1274;61065;-23
2022/07/02 08:40:46;;;;;;;4.10;2.60;;;;;;;31.78;32.91;99335.84;105006;1274;61111;-23
2022/07/02 08:43:13;;;;;;;5.90;2.50;;;;;;;31.94;33.66;99336.81;105100;1274;75379;-23
2022/07/02 08:45:42;;;;;;;4.10;3.70;;;;;;;32.14;32.46;99332.62;105084;1273;76029;-23
2022/07/02 08:48:10;;;;;;;6.70;2.40;;;;;;;32.27;31.82;99337.98;104704;1274;72525;-23
2022/07/02 08:50:40;;;;;;;3.00;2.00;;;;;;;32.33;31.68;99338.28;104429;1275;61024;-23
2022/07/02 08:53:08;;;;;;;6.50;4.20;;;;;;;32.53;31.77;99333.30;104759;1274;61156;-23
2022/07/02 08:55:36;;;;;;;5.20;4.30;;;;;;;32.81;31.68;99328.70;104942;1274;75521;-23
2022/07/02 08:58:07;;;;;;;3.50;3.20;;;;;;;32.91;31.24;99326.53;104964;1274;76041;-24
2022/07/02 09:00:35;;;;;;;3.10;2.10;;;;;;;32.91;31.77;99322.11;105040;1274;73268;-24
2022/07/02 09:03:02;;;;;;;2.40;1.50;;;;;;;32.97;30.82;99323.79;104992;1274;61295;-24
2022/07/02 09:05:30;;;;;;;2.60;1.70;;;;;;;32.96;30.12;99321.52;104724;1274;61074;-24
2022/07/02 09:07:57;;;;;;;4.20;1.70;;;;;;;32.90;30.35;99314.08;105013;1274;75362;-24
2022/07/02 09:10:27;;;;;;;5.50;2.90;;;;;;;32.90;31.41;99322.06;104830;1271;75971;-24
2022/07/02 09:12:55;;;;;;;3.00;1.90;;;;;;;33.05;31.39;99319.82;104826;1272;74224;-24
2022/07/02 09:15:22;;;;;;;2.40;1.70;;;;;;;32.92;30.85;99319.78;104774;1274;61150;-24
2022/07/02 09:17:50;;;;;;;4.40;1.90;;;;;;;33.09;30.11;99316.73;104770;1274;61892;-24
2022/07/02 09:20:18;;;;;;;3.50;1.80;;;;;;;33.25;30.22;99317.23;104832;1274;75665;-24
2022/07/02 09:22:49;;;;;;;3.20;1.80;;;;;;;33.43;30.61;99316.13;104749;1274;76141;-24
2022/07/02 09:25:20;;;;;;;3.00;1.80;;;;;;;33.60;29.95;99310.82;104758;1273;74468;-24
2022/07/02 09:27:57;;;;;;;5.50;1.90;;;;;;;33.62;30.89;99311.57;104609;1274;61157;-25
2022/07/02 09:30:33;;;;;;;2.60;2.30;;;;;;;33.87;31.05;99304.95;104699;1274;61194;-24
2022/07/02 09:35:46;;;;;;;3.20;2.90;;;;;;;34.21;30.51;99305.08;104888;1274;76691;-24
2022/07/02 09:38:14;;;;;;;3.90;1.90;;;;;;;34.24;29.94;99296.96;105134;1271;74499;-24
2022/07/02 09:40:51;;;;;;;3.50;1.70;;;;;;;33.92;29.93;99298.36;104693;1274;61030;-24
2022/07/02 09:43:32;;;;;;;3.40;1.80;;;;;;;33.88;29.78;99302.77;104786;1274;61153;-24
2022/07/02 09:46:00;;;;;;;3.60;1.70;;;;;;;33.95;29.50;99303.83;105061;1272;74603;-25
2022/07/02 09:48:28;;;;;;;3.10;1.40;;;;;;;34.02;29.00;99300.86;104734;1274;75001;-24
2022/07/02 09:51:04;;;;;;;3.90;1.90;;;;;;;34.10;28.93;99292.73;105122;1274;74524;-24
2022/07/02 09:53:32;;;;;;;5.30;1.90;;;;;;;33.97;28.58;99291.54;104867;1271;61176;-24
2022/07/02 09:56:04;;;;;;;1.90;1.60;;;;;;;33.92;28.70;99287.95;104887;1272;61160;-24
2022/07/02 09:58:33;;;;;;;3.30;1.70;;;;;;;34.04;29.48;99287.36;104869;1275;74550;-24
2022/07/02 10:01:04;;;;;;;2.50;1.80;;;;;;;33.94;28.45;99285.61;104985;1271;76202;-25
2022/07/02 10:03:32;;;;;;;5.20;2.00;;;;;;;33.97;27.71;99284.31;104793;1274;74200;-24
2022/07/02 10:06:00;;;;;;;2.50;2.00;;;;;;;33.72;27.64;99287.36;104916;1274;62045;-24
2022/07/02 10:08:27;;;;;;;6.40;2.00;;;;;;;33.75;28.01;99286.40;104836;1272;62027;-24
2022/07/02 10:10:56;;;;;;;4.30;1.90;;;;;;;33.61;28.10;99287.49;104752;1274;75410;-24
2022/07/02 10:13:24;;;;;;;2.80;1.80;;;;;;;33.90;28.79;99289.55;104739;1271;75801;-24
2022/07/02 10:16:00;;;;;;;5.80;1.90;;;;;;;34.31;28.67;99288.23;104848;1272;73389;-24
2022/07/02 10:18:30;;;;;;;3.40;2.30;;;;;;;33.89;27.54;99286.16;104786;1271;61141;-24
2022/07/02 10:20:59;;;;;;;3.10;1.70;;;;;;;34.05;28.62;99281.90;105043;1271;61166;-24
2022/07/02 10:23:27;;;;;;;4.00;2.10;;;;;;;34.35;28.71;99287.52;104724;1274;74553;-25
2022/07/02 10:25:55;;;;;;;3.40;1.70;;;;;;;34.71;29.03;99287.88;105114;1271;76050;-24
2022/07/02 10:28:26;;;;;;;1.70;1.50;;;;;;;34.88;27.32;99282.10;104835;1274;73143;-25
2022/07/02 10:30:54;;;;;;;5.20;1.70;;;;;;;34.25;27.85;99286.68;104751;1271;61743;-24
2022/07/02 10:33:45;;;;;;;2.80;2.10;;;;;;;34.33;26.82;99288.23;105034;1271;61653;-24
2022/07/02 10:36:13;;;;;;;2.40;2.10;;;;;;;32.92;29.00;99284.29;104884;1272;74395;-25
2022/07/02 10:38:41;;;;;;;2.30;2.10;;;;;;;33.72;28.77;99275.55;105111;1274;75856;-24
2022/07/02 10:41:09;;;;;;;2.00;1.80;;;;;;;34.34;28.92;99279.24;105159;1274;74796;-24
2022/07/02 10:43:38;;;;;;;3.70;2.30;;;;;;;34.97;28.22;99281.55;105088;1274;62142;-24
2022/07/02 10:46:07;;;;;;;2.70;2.00;;;;;;;35.34;28.02;99285.27;105113;1274;62458;-24
2022/07/02 10:48:56;;;;;;;2.30;2.10;;;;;;;35.20;27.11;99281.70;105058;1273;75601;-25
2022/07/02 10:51:28;;;;;;;3.90;2.40;;;;;;;34.96;27.76;99281.45;104843;1274;74951;-25
2022/07/02 10:53:58;;;;;;;8.30;2.40;;;;;;;34.28;27.91;99285.80;104882;1274;73420;-25
2022/07/02 10:56:27;;;;;;;2.90;2.00;;;;;;;33.08;29.08;99278.61;104969;1274;62217;-24
2022/07/02 10:58:54;;;;;;;3.10;1.90;;;;;;;32.44;30.82;99278.79;104872;1272;61027;-25
2022/07/02 11:01:23;;;;;;;2.50;1.90;;;;;;;32.79;29.76;99281.35;104848;1274;75407;-24
2022/07/02 11:03:53;;;;;;;6.40;2.10;;;;;;;33.44;29.85;99272.71;104680;1274;74845;-24
2022/07/02 11:06:22;;;;;;;4.80;2.00;;;;;;;33.97;28.71;99274.04;104825;1274;74448;-25
2022/07/02 11:09:02;;;;;;;3.60;1.90;;;;;;;34.34;29.56;99272.66;104781;1274;61155;-24
2022/07/02 11:11:37;;;;;;;2.70;1.90;;;;;;;34.49;28.79;99269.78;104745;1271;61140;-24
2022/07/02 11:14:11;;;;;;;2.30;2.10;;;;;;;34.23;27.44;99261.85;104870;1272;75847;-24
2022/07/02 11:16:40;;;;;;;2.20;1.90;;;;;;;33.60;28.91;99254.23;104877;1274;76065;-25
2022/07/02 11:19:24;;;;;;;2.30;2.00;;;;;;;33.78;29.99;99257.48;104900;1274;73298;-24
2022/07/02 11:21:57;;;;;;;6.50;2.00;;;;;;;33.82;30.59;99253.27;105084;1274;62168;-25
2022/07/02 11:24:30;;;;;;;2.00;1.80;;;;;;;33.67;29.57;99253.42;104992;1274;61149;-24
2022/07/02 11:26:58;;;;;;;3.60;2.00;;;;;;;33.71;30.44;99255.19;105091;1274;75610;-24
2022/07/02 11:29:26;;;;;;;4.20;2.30;;;;;;;33.97;28.54;99258.92;105090;1273;76168;-24
2022/07/02 11:31:55;;;;;;;2.80;2.20;;;;;;;33.73;28.80;99257.73;105067;1274;73973;-24
2022/07/02 11:34:28;;;;;;;3.20;2.20;;;;;;;34.10;28.76;99255.97;104944;1274;61134;-25
2022/07/02 11:36:57;;;;;;;3.00;1.80;;;;;;;34.35;29.38;99255.74;105078;1274;61964;-25
2022/07/02 11:39:25;;;;;;;2.00;1.80;;;;;;;34.59;28.68;99250.31;105061;1272;75942;-24
2022/07/02 11:41:53;;;;;;;2.40;2.20;;;;;;;34.70;29.60;99250.58;104667;1274;76013;-24